Time;durP1;ratioP1;P1;durP2;ratioP2;P2;SDS_P1;SDS_P2;PMS_P1;PMS_P2;Temp;Humidity;BMP_temperature;BMP_pressure;BME280_temperature;BME280_humidity;BME280_pressure;Samples;Min_cycle;Max_cycle;Signal;HPM_P1;HPM_P2
2021/10/23 00:01:21;;;;;;;8.55;4.97;;;;;;;6.23;100.00;97083.25;5046923;28;20068;-52
2021/10/23 00:03:50;;;;;;;7.30;4.30;;;;;;;6.32;100.00;97080.88;5044933;28;20084;-54
2021/10/23 00:06:18;;;;;;;6.40;4.53;;;;;;;6.15;100.00;97082.00;5026594;28;20314;-50
2021/10/23 00:08:47;;;;;;;10.10;4.35;;;;;;;6.13;100.00;97089.13;5028466;28;20528;-50
2021/10/23 00:11:15;;;;;;;7.55;4.57;;;;;;;6.18;100.00;97086.19;5018631;28;20072;-50
2021/10/23 00:13:44;;;;;;;9.80;4.28;;;;;;;5.86;100.00;97083.06;5015499;28;20081;-52
2021/10/23 00:16:13;;;;;;;10.43;4.90;;;;;;;6.27;100.00;97085.59;5024875;28;20091;-52
2021/10/23 00:18:43;;;;;;;9.48;4.50;;;;;;;6.13;100.00;97081.28;5029846;28;20072;-48
2021/10/23 00:21:11;;;;;;;7.07;4.47;;;;;;;6.37;100.00;97086.66;5024784;28;21980;-48
2021/10/23 00:23:40;;;;;;;8.38;4.40;;;;;;;6.16;100.00;97082.84;5037811;28;20442;-49
2021/10/23 00:26:08;;;;;;;9.50;4.60;;;;;;;6.16;100.00;97086.31;5025577;28;20069;-49
2021/10/23 00:28:37;;;;;;;9.25;4.43;;;;;;;6.03;100.00;97088.06;5032589;28;20091;-47
2021/10/23 00:31:06;;;;;;;12.40;4.70;;;;;;;5.93;100.00;97090.44;5034118;28;20093;-52
2021/10/23 00:33:34;;;;;;;7.70;4.30;;;;;;;6.07;100.00;97089.53;5035877;28;20069;-49
2021/10/23 00:36:05;;;;;;;9.80;4.20;;;;;;;5.96;100.00;97089.41;5041962;28;20540;-49
2021/10/23 00:38:33;;;;;;;7.78;4.30;;;;;;;6.08;100.00;97099.03;5033302;28;20065;-54
2021/10/23 00:41:02;;;;;;;5.60;4.28;;;;;;;6.00;100.00;97097.88;5021060;28;20477;-52
2021/10/23 00:43:31;;;;;;;6.38;4.20;;;;;;;5.94;100.00;97101.72;5027701;28;20091;-55
2021/10/23 00:45:59;;;;;;;7.63;4.13;;;;;;;6.15;100.00;97104.72;5043362;28;20076;-47
2021/10/23 00:48:28;;;;;;;7.47;4.22;;;;;;;6.03;100.00;97101.16;5021325;28;20097;-51
2021/10/23 00:50:56;;;;;;;7.85;4.47;;;;;;;6.00;100.00;97098.72;5026784;28;20079;-52
2021/10/23 00:53:26;;;;;;;10.77;4.18;;;;;;;5.81;100.00;97095.59;5018378;28;20073;-49
2021/10/23 00:55:55;;;;;;;10.95;4.00;;;;;;;6.07;100.00;97100.00;5020443;28;20077;-48
2021/10/23 00:58:24;;;;;;;10.70;4.20;;;;;;;5.81;100.00;97101.66;5031939;28;20076;-50
2021/10/23 01:00:52;;;;;;;11.50;4.68;;;;;;;5.78;100.00;97109.72;5045909;28;20076;-50
2021/10/23 01:03:20;;;;;;;7.05;3.90;;;;;;;5.90;100.00;97108.09;5044095;28;20083;-53
2021/10/23 01:05:49;;;;;;;8.07;3.70;;;;;;;6.04;100.00;97118.53;5040842;28;20065;-50
2021/10/23 01:08:18;;;;;;;6.03;3.90;;;;;;;5.88;100.00;97117.81;5027254;28;20061;-52
2021/10/23 01:10:47;;;;;;;6.97;3.90;;;;;;;6.01;100.00;97123.13;5026145;28;20065;-49
2021/10/23 01:13:16;;;;;;;6.97;3.80;;;;;;;5.75;100.00;97112.53;5020019;28;20076;-52
2021/10/23 01:15:44;;;;;;;7.80;3.67;;;;;;;6.02;100.00;97120.41;5042207;28;20085;-51
2021/10/23 01:18:13;;;;;;;7.25;4.13;;;;;;;5.75;100.00;97109.06;5037186;28;20079;-51
2021/10/23 01:20:43;;;;;;;7.00;3.80;;;;;;;5.89;100.00;97111.66;5032839;28;20450;-55
2021/10/23 01:23:11;;;;;;;6.63;3.83;;;;;;;5.86;100.00;97120.53;5025078;28;21950;-51
2021/10/23 01:25:40;;;;;;;6.72;3.58;;;;;;;5.89;100.00;97114.28;5024973;28;20073;-54
2021/10/23 01:28:08;;;;;;;10.70;3.80;;;;;;;6.03;100.00;97116.84;5024807;28;20080;-50
2021/10/23 01:30:37;;;;;;;6.07;3.50;;;;;;;6.03;100.00;97114.25;5025753;28;20072;-53
2021/10/23 01:33:05;;;;;;;6.07;4.05;;;;;;;6.04;100.00;97113.28;5031158;28;20073;-53
2021/10/23 01:35:34;;;;;;;7.22;3.40;;;;;;;5.93;100.00;97114.00;5028576;28;20069;-52
2021/10/23 01:38:04;;;;;;;7.47;4.00;;;;;;;6.07;100.00;97114.88;5028746;28;20075;-51
2021/10/23 01:40:33;;;;;;;9.27;3.75;;;;;;;5.89;100.00;97120.34;5028309;28;20045;-55
2021/10/23 01:43:02;;;;;;;8.07;4.00;;;;;;;6.09;100.00;97115.59;5024448;28;20086;-51
2021/10/23 01:45:32;;;;;;;10.10;3.88;;;;;;;6.07;100.00;97122.72;5023338;28;20073;-52
2021/10/23 01:48:01;;;;;;;7.25;3.80;;;;;;;6.32;100.00;97114.91;5046185;28;20076;-51
2021/10/23 01:50:29;;;;;;;7.50;4.35;;;;;;;6.13;100.00;97111.84;5034168;28;20076;-52
2021/10/23 01:52:58;;;;;;;7.10;3.42;;;;;;;6.35;100.00;97112.09;5024825;28;20065;-49
2021/10/23 01:55:28;;;;;;;7.32;3.50;;;;;;;6.28;100.00;97113.44;5023586;28;20080;-52
2021/10/23 01:57:57;;;;;;;9.90;3.80;;;;;;;6.42;100.00;97112.53;5026442;28;20096;-51
2021/10/23 02:00:25;;;;;;;7.30;3.70;;;;;;;6.72;100.00;97111.41;5031451;28;20084;-54
2021/10/23 02:02:54;;;;;;;7.15;3.38;;;;;;;6.33;100.00;97116.63;5025753;28;20038;-46
2021/10/23 02:05:23;;;;;;;8.95;3.58;;;;;;;6.85;100.00;97118.31;5027647;28;20077;-52
2021/10/23 02:07:51;;;;;;;8.65;3.72;;;;;;;6.86;100.00;97112.13;5027952;28;20537;-54
2021/10/23 02:10:20;;;;;;;5.03;3.40;;;;;;;6.73;100.00;97113.06;5027959;28;20096;-52
2021/10/23 02:12:49;;;;;;;11.38;3.47;;;;;;;6.67;100.00;97111.69;5024293;28;20446;-56
2021/10/23 02:15:18;;;;;;;7.25;3.72;;;;;;;6.87;100.00;97105.09;5033106;28;21259;-53
2021/10/23 02:17:46;;;;;;;8.27;4.00;;;;;;;6.81;100.00;97116.00;5031976;28;20061;-53
2021/10/23 02:20:15;;;;;;;8.23;3.53;;;;;;;6.84;100.00;97107.94;5031296;28;20069;-54
2021/10/23 02:22:43;;;;;;;4.70;3.53;;;;;;;6.75;100.00;97117.28;5027345;28;20076;-48
2021/10/23 02:25:13;;;;;;;5.93;3.25;;;;;;;6.72;100.00;97127.97;5020307;28;20069;-54
2021/10/23 02:27:41;;;;;;;9.07;3.58;;;;;;;6.88;100.00;97123.38;5030401;28;20096;-54
2021/10/23 02:30:11;;;;;;;9.35;3.60;;;;;;;6.85;100.00;97125.34;5022495;28;20478;-53
2021/10/23 02:32:40;;;;;;;8.90;3.80;;;;;;;6.71;100.00;97126.31;5017556;28;20073;-52
2021/10/23 02:35:09;;;;;;;6.32;3.50;;;;;;;6.77;100.00;97127.66;5028708;28;20065;-52
2021/10/23 02:37:37;;;;;;;10.57;3.85;;;;;;;6.79;100.00;97134.47;5038121;28;20073;-53
2021/10/23 02:40:07;;;;;;;6.38;3.47;;;;;;;7.01;100.00;97128.56;5021367;28;20084;-54
2021/10/23 02:42:36;;;;;;;7.97;4.47;;;;;;;6.61;100.00;97135.72;5048769;28;20221;-56
2021/10/23 02:45:05;;;;;;;5.82;3.53;;;;;;;6.96;100.00;97137.72;5030906;28;20064;-49
2021/10/23 02:47:34;;;;;;;7.22;3.63;;;;;;;7.08;100.00;97139.50;5037100;28;20072;-52
2021/10/23 02:50:03;;;;;;;9.67;3.50;;;;;;;7.33;100.00;97144.72;5045850;28;20053;-53
2021/10/23 02:52:32;;;;;;;8.60;3.60;;;;;;;7.12;100.00;97140.94;5046479;28;20521;-52
2021/10/23 02:55:00;;;;;;;4.85;4.13;;;;;;;6.76;100.00;97142.53;5041562;28;20095;-54
2021/10/23 02:57:29;;;;;;;9.60;5.35;;;;;;;6.99;100.00;97142.75;5047305;28;20095;-54
2021/10/23 02:59:57;;;;;;;11.85;5.72;;;;;;;7.01;100.00;97143.47;5029929;28;20065;-56
2021/10/23 03:02:26;;;;;;;11.82;5.57;;;;;;;7.05;100.00;97140.53;5025545;28;20072;-52
2021/10/23 03:04:56;;;;;;;12.50;6.10;;;;;;;7.36;100.00;97144.50;5023838;28;20065;-53
2021/10/23 03:07:24;;;;;;;12.57;5.53;;;;;;;7.53;100.00;97150.31;5025705;28;20076;-51
2021/10/23 03:09:53;;;;;;;10.57;5.72;;;;;;;7.58;100.00;97156.09;5024351;28;20061;-52
2021/10/23 03:12:21;;;;;;;8.20;5.07;;;;;;;7.46;100.00;97156.97;5024925;28;20085;-56
2021/10/23 03:14:49;;;;;;;8.90;4.22;;;;;;;7.45;100.00;97152.66;5041181;28;20119;-57
2021/10/23 03:17:18;;;;;;;10.00;4.15;;;;;;;7.29;100.00;97155.50;5044785;28;20061;-49
2021/10/23 03:19:46;;;;;;;9.88;3.67;;;;;;;7.08;100.00;97166.53;5033181;28;20084;-56
2021/10/23 03:22:16;;;;;;;8.68;3.70;;;;;;;7.08;100.00;97163.91;5032465;28;20072;-52
2021/10/23 03:24:44;;;;;;;5.78;3.53;;;;;;;7.39;100.00;97164.41;5046846;28;20532;-53
2021/10/23 03:27:14;;;;;;;7.20;3.75;;;;;;;7.33;100.00;97164.88;5028743;28;20064;-55
2021/10/23 03:29:44;;;;;;;6.75;3.42;;;;;;;7.31;100.00;97172.84;5023323;28;20742;-56
2021/10/23 03:32:13;;;;;;;6.82;3.78;;;;;;;7.33;100.00;97175.38;5024882;28;20482;-53
2021/10/23 03:34:41;;;;;;;6.20;2.90;;;;;;;7.01;100.00;97172.31;5026742;28;20072;-55
2021/10/23 03:37:09;;;;;;;7.22;3.65;;;;;;;7.09;100.00;97173.50;5026939;28;20089;-52
2021/10/23 03:39:40;;;;;;;5.40;3.35;;;;;;;7.23;100.00;97174.31;5024231;28;20084;-51
2021/10/23 03:42:08;;;;;;;9.43;3.53;;;;;;;7.47;100.00;97177.03;5024367;28;20065;-48
2021/10/23 03:44:37;;;;;;;6.03;3.75;;;;;;;7.39;100.00;97174.91;5041127;28;20068;-54
2021/10/23 03:47:05;;;;;;;4.43;3.22;;;;;;;7.11;100.00;97176.84;5034505;28;20069;-54
2021/10/23 03:49:34;;;;;;;8.05;3.90;;;;;;;7.57;100.00;97173.66;5028743;28;20071;-51
2021/10/23 03:52:02;;;;;;;8.45;3.88;;;;;;;7.26;100.00;97180.19;5045929;28;20124;-51
2021/10/23 03:54:31;;;;;;;6.93;3.72;;;;;;;7.55;100.00;97174.69;5035407;28;20091;-51
2021/10/23 03:57:01;;;;;;;7.35;3.72;;;;;;;7.33;100.00;97178.81;5017046;28;20091;-55
2021/10/23 03:59:29;;;;;;;4.80;3.38;;;;;;;7.79;100.00;97187.88;5023792;28;20061;-49
2021/10/23 04:01:58;;;;;;;8.63;3.30;;;;;;;7.59;100.00;97192.72;5019758;28;20065;-50
2021/10/23 04:04:27;;;;;;;5.22;3.20;;;;;;;7.52;100.00;97195.91;5020946;28;20079;-54
2021/10/23 04:06:55;;;;;;;8.05;3.03;;;;;;;7.25;100.00;97189.00;5021509;28;20080;-52
2021/10/23 04:09:23;;;;;;;7.22;3.20;;;;;;;7.61;100.00;97197.88;5030025;28;20209;-49
2021/10/23 04:11:52;;;;;;;5.57;2.92;;;;;;;7.63;100.00;97203.00;5042942;28;20073;-53
2021/10/23 04:14:22;;;;;;;7.47;3.22;;;;;;;7.80;100.00;97203.50;5044907;28;20075;-54
2021/10/23 04:16:50;;;;;;;9.07;3.63;;;;;;;7.80;100.00;97197.41;5037563;28;20081;-50
2021/10/23 04:19:21;;;;;;;6.93;3.60;;;;;;;7.68;100.00;97204.38;5040515;28;20096;-55
2021/10/23 04:21:49;;;;;;;5.88;3.15;;;;;;;7.90;100.00;97197.59;5027807;28;20077;-49
2021/10/23 04:24:18;;;;;;;5.53;3.40;;;;;;;7.88;100.00;97202.97;5022035;28;20201;-53
2021/10/23 04:26:49;;;;;;;5.10;3.20;;;;;;;7.85;100.00;97205.81;5038119;28;20083;-49
2021/10/23 04:29:17;;;;;;;4.97;3.35;;;;;;;7.85;100.00;97198.78;5042830;28;20069;-51
2021/10/23 04:31:47;;;;;;;6.22;3.03;;;;;;;7.79;100.00;97199.19;5036254;28;20065;-54
2021/10/23 04:34:16;;;;;;;6.35;3.42;;;;;;;7.79;100.00;97196.56;5020253;28;20061;-55
2021/10/23 04:36:44;;;;;;;7.10;3.22;;;;;;;7.87;100.00;97198.66;5026989;28;20108;-50
2021/10/23 04:39:13;;;;;;;5.25;3.05;;;;;;;7.82;100.00;97208.66;5025555;28;20560;-48
2021/10/23 04:41:41;;;;;;;6.40;2.92;;;;;;;7.52;100.00;97204.59;5036954;28;20080;-54
2021/10/23 04:44:10;;;;;;;6.45;3.15;;;;;;;7.88;100.00;97208.22;5033081;28;20470;-54
2021/10/23 04:46:38;;;;;;;8.52;3.30;;;;;;;7.72;100.00;97205.84;5025794;28;20076;-53
2021/10/23 04:49:08;;;;;;;7.35;3.38;;;;;;;7.61;100.00;97206.59;5022208;28;20082;-53
2021/10/23 04:51:37;;;;;;;5.25;3.25;;;;;;;7.49;100.00;97212.69;5028672;28;20092;-55
2021/10/23 04:54:05;;;;;;;7.97;3.33;;;;;;;7.46;100.00;97210.28;5041392;28;20080;-49
2021/10/23 04:56:34;;;;;;;4.93;2.83;;;;;;;7.57;100.00;97214.78;5044136;28;20110;-53
2021/10/23 04:59:03;;;;;;;7.88;2.90;;;;;;;7.54;100.00;97221.09;5040730;28;20179;-54
2021/10/23 05:01:31;;;;;;;6.60;3.40;;;;;;;7.61;100.00;97213.63;5032283;28;20064;-49
2021/10/23 05:04:00;;;;;;;5.75;3.30;;;;;;;7.72;100.00;97213.72;5016019;28;20580;-52
2021/10/23 05:06:29;;;;;;;3.85;2.70;;;;;;;7.56;100.00;97216.56;5025699;28;20104;-51
2021/10/23 05:08:58;;;;;;;5.47;2.95;;;;;;;7.74;100.00;97224.09;5023946;28;20061;-54
2021/10/23 05:11:26;;;;;;;6.90;2.97;;;;;;;7.53;100.00;97223.81;5022178;28;20080;-51
2021/10/23 05:13:55;;;;;;;7.78;3.00;;;;;;;7.87;100.00;97224.91;5044563;28;20041;-52
2021/10/23 05:16:23;;;;;;;7.55;2.80;;;;;;;7.73;100.00;97220.63;5046582;28;20057;-54
2021/10/23 05:18:52;;;;;;;5.70;2.92;;;;;;;7.83;100.00;97221.66;5045307;28;20088;-51
2021/10/23 05:21:21;;;;;;;7.18;3.10;;;;;;;7.82;100.00;97232.28;5049086;28;20076;-50
2021/10/23 05:23:53;;;;;;;5.82;3.00;;;;;;;7.75;100.00;97221.38;5041840;28;20081;-51
2021/10/23 05:26:22;;;;;;;5.47;2.70;;;;;;;7.64;100.00;97225.69;5031519;28;20536;-54
2021/10/23 05:28:50;;;;;;;4.97;2.70;;;;;;;7.77;100.00;97224.72;5037293;28;20077;-50
2021/10/23 05:31:20;;;;;;;5.85;2.83;;;;;;;7.92;100.00;97225.44;5037350;28;20061;-53
2021/10/23 05:33:48;;;;;;;6.68;2.63;;;;;;;7.65;100.00;97230.84;5042901;28;20085;-52
2021/10/23 05:36:17;;;;;;;6.68;2.72;;;;;;;7.67;100.00;97226.31;5024134;28;20072;-55
2021/10/23 05:38:45;;;;;;;5.57;2.80;;;;;;;7.70;100.00;97228.72;5023673;28;20072;-52
2021/10/23 05:41:15;;;;;;;4.28;2.78;;;;;;;7.76;100.00;97228.28;5036572;28;20101;-51
2021/10/23 05:43:44;;;;;;;6.57;3.20;;;;;;;7.79;100.00;97238.59;5035147;28;20080;-51
2021/10/23 05:46:13;;;;;;;8.15;2.85;;;;;;;7.84;100.00;97231.25;5032020;28;20467;-52
2021/10/23 05:48:41;;;;;;;4.82;2.88;;;;;;;8.06;100.00;97234.94;5046013;28;20093;-52
2021/10/23 05:51:09;;;;;;;5.80;2.83;;;;;;;7.74;100.00;97231.97;5043461;28;20075;-56
2021/10/23 05:53:38;;;;;;;8.10;3.05;;;;;;;7.89;100.00;97232.69;5049716;28;20072;-55
2021/10/23 05:56:07;;;;;;;5.45;2.63;;;;;;;8.07;100.00;97240.09;5042554;28;20069;-54
2021/10/23 05:58:37;;;;;;;5.00;2.83;;;;;;;8.21;100.00;97238.25;5020672;28;20069;-54
2021/10/23 06:01:07;;;;;;;5.78;2.80;;;;;;;8.14;100.00;97244.91;5027756;28;20080;-51
2021/10/23 06:03:38;;;;;;;4.53;2.85;;;;;;;8.36;100.00;97236.28;5049810;28;20079;-56
2021/10/23 06:06:08;;;;;;;6.00;3.13;;;;;;;8.23;100.00;97239.84;5044822;28;20061;-52
2021/10/23 06:08:37;;;;;;;4.15;2.75;;;;;;;8.34;100.00;97246.94;5039417;28;20078;-50
2021/10/23 06:11:05;;;;;;;5.43;2.88;;;;;;;8.10;100.00;97244.28;5048343;28;20056;-53
2021/10/23 06:13:34;;;;;;;6.97;2.78;;;;;;;8.64;100.00;97251.78;5042045;28;20513;-55
2021/10/23 06:16:05;;;;;;;7.43;2.90;;;;;;;8.07;100.00;97257.63;5030288;28;20073;-50
2021/10/23 06:18:33;;;;;;;;;;;;;;;8.70;100.00;97266.25;5047437;28;20073;-50
2021/10/23 06:21:02;;;;;;;7.03;2.80;;;;;;;8.55;100.00;97262.97;5026649;28;19944;-48
2021/10/23 06:23:32;;;;;;;4.97;2.97;;;;;;;8.35;100.00;97267.00;5023995;28;20068;-48
2021/10/23 06:26:01;;;;;;;7.05;2.67;;;;;;;9.09;100.00;97267.72;5033916;28;20547;-52
2021/10/23 06:28:29;;;;;;;5.65;2.85;;;;;;;8.93;100.00;97275.06;5045640;28;20071;-49
2021/10/23 06:30:58;;;;;;;6.25;2.90;;;;;;;8.61;100.00;97275.66;5042239;28;20525;-56
2021/10/23 06:33:28;;;;;;;8.60;2.88;;;;;;;9.03;100.00;97282.16;5043582;28;20081;-59
2021/10/23 06:35:57;;;;;;;5.72;2.80;;;;;;;9.07;100.00;97281.94;5026351;28;20521;-55
2021/10/23 06:38:25;;;;;;;4.35;2.55;;;;;;;8.56;100.00;97286.50;5026836;28;20456;-59
2021/10/23 06:40:55;;;;;;;5.05;2.88;;;;;;;9.00;100.00;97294.72;5027029;28;20113;-56
2021/10/23 06:43:25;;;;;;;10.73;2.67;;;;;;;8.47;100.00;97292.44;5022191;28;20088;-58
2021/10/23 06:45:53;;;;;;;4.28;2.70;;;;;;;8.87;100.00;97296.56;5025696;28;20083;-56
2021/10/23 06:48:22;;;;;;;6.63;2.90;;;;;;;8.89;100.00;97300.75;5026819;28;20129;-58
2021/10/23 06:50:52;;;;;;;4.88;2.55;;;;;;;8.96;100.00;97309.03;5041143;28;20462;-52
2021/10/23 06:53:20;;;;;;;4.60;2.42;;;;;;;9.54;100.00;97304.66;5027484;28;20505;-55
2021/10/23 06:55:49;;;;;;;5.35;2.92;;;;;;;9.46;100.00;97304.38;5034901;28;20080;-55
2021/10/23 06:58:17;;;;;;;7.13;2.53;;;;;;;9.12;100.00;97319.25;5047877;28;20057;-59
2021/10/23 07:00:50;;;;;;;8.50;2.80;;;;;;;9.39;100.00;97325.06;5046435;28;20508;-59
2021/10/23 07:03:19;;;;;;;5.38;2.90;;;;;;;9.76;100.00;97327.53;5040901;28;20064;-59
2021/10/23 07:05:48;;;;;;;5.65;2.67;;;;;;;9.75;100.00;97334.63;5027730;28;20061;-55
2021/10/23 07:08:18;;;;;;;5.38;2.58;;;;;;;9.78;100.00;97335.34;5022422;28;20065;-57
2021/10/23 07:10:46;;;;;;;4.87;2.97;;;;;;;10.07;100.00;97340.97;5022382;28;20821;-57
2021/10/23 07:13:15;;;;;;;6.25;2.95;;;;;;;10.19;100.00;97345.31;5017596;28;20855;-57
2021/10/23 07:15:44;;;;;;;5.20;3.30;;;;;;;10.23;100.00;97352.00;5043809;28;20448;-56
2021/10/23 07:18:12;;;;;;;7.03;3.15;;;;;;;10.07;100.00;97352.34;5046584;28;20068;-55
2021/10/23 07:20:40;;;;;;;10.85;3.25;;;;;;;10.20;100.00;97347.81;5049650;28;20076;-53
2021/10/23 07:23:09;;;;;;;5.57;2.80;;;;;;;9.94;100.00;97362.16;5033998;28;20061;-50
2021/10/23 07:25:40;;;;;;;7.05;3.00;;;;;;;9.71;100.00;97369.22;5020109;28;20104;-56
2021/10/23 07:28:08;;;;;;;4.57;2.80;;;;;;;9.95;100.00;97369.97;5021394;28;20084;-56
2021/10/23 07:30:37;;;;;;;8.57;3.08;;;;;;;9.86;100.00;97375.09;5026241;28;20092;-52
2021/10/23 07:33:06;;;;;;;6.18;3.20;;;;;;;9.85;100.00;97378.69;5044120;28;20076;-56
2021/10/23 07:35:34;;;;;;;7.30;3.00;;;;;;;10.53;100.00;97371.66;5025201;28;20456;-57
2021/10/23 07:38:03;;;;;;;5.13;3.00;;;;;;;10.43;100.00;97385.59;5020708;28;20080;-50
2021/10/23 07:40:32;;;;;;;4.18;2.90;;;;;;;10.32;100.00;97382.09;5028581;28;20071;-55
2021/10/23 07:43:02;;;;;;;6.10;3.30;;;;;;;10.42;100.00;97391.78;5039466;28;20088;-56
2021/10/23 07:45:30;;;;;;;4.43;3.08;;;;;;;9.97;100.00;97401.47;5042213;28;20704;-56
2021/10/23 07:47:59;;;;;;;5.68;3.15;;;;;;;10.21;100.00;97394.28;5018809;28;20064;-56
2021/10/23 07:50:27;;;;;;;8.65;3.13;;;;;;;10.72;100.00;97390.34;5034860;28;20075;-55
2021/10/23 07:53:01;;;;;;;6.28;3.08;;;;;;;10.37;100.00;97398.41;5038221;28;20072;-58
2021/10/23 07:55:32;;;;;;;7.38;2.97;;;;;;;10.16;100.00;97398.25;5046796;28;20696;-52
2021/10/23 07:58:02;;;;;;;5.40;2.97;;;;;;;10.51;100.00;97398.16;5038815;28;20904;-56
2021/10/23 08:00:31;;;;;;;7.45;2.95;;;;;;;10.62;100.00;97387.59;5038797;28;20077;-57
2021/10/23 08:03:01;;;;;;;9.10;3.10;;;;;;;10.64;100.00;97393.59;5042496;28;20068;-54
2021/10/23 08:05:33;;;;;;;5.45;3.10;;;;;;;10.60;100.00;97386.88;5024560;28;20548;-53
2021/10/23 08:08:02;;;;;;;6.57;3.10;;;;;;;10.31;100.00;97385.69;5032829;28;20069;-52
2021/10/23 08:10:31;;;;;;;6.97;3.53;;;;;;;10.73;100.00;97377.97;5034832;28;20077;-50
2021/10/23 08:13:02;;;;;;;7.60;3.00;;;;;;;10.51;100.00;97374.44;5039437;28;20655;-50
2021/10/23 08:15:31;;;;;;;4.75;2.70;;;;;;;11.31;100.00;97376.72;5041919;28;20478;-53
2021/10/23 08:18:01;;;;;;;5.82;2.80;;;;;;;10.75;100.00;97369.00;5043440;28;20239;-53
2021/10/23 08:20:31;;;;;;;5.00;2.83;;;;;;;10.54;100.00;97363.63;5044556;28;20460;-55
2021/10/23 08:23:00;;;;;;;5.53;3.07;;;;;;;10.85;100.00;97364.66;5038266;28;20068;-56
2021/10/23 08:25:28;;;;;;;11.02;3.25;;;;;;;10.52;100.00;97360.28;5046259;28;20068;-54
2021/10/23 08:27:57;;;;;;;10.23;2.97;;;;;;;11.06;100.00;97353.31;5040379;28;20103;-57
2021/10/23 08:30:27;;;;;;;7.72;3.30;;;;;;;11.23;100.00;97354.56;5029107;28;20091;-53
2021/10/23 08:32:55;;;;;;;6.45;3.53;;;;;;;11.06;100.00;97354.16;5044069;28;20079;-56
2021/10/23 08:35:24;;;;;;;6.75;3.28;;;;;;;11.09;100.00;97355.72;5029157;28;20044;-56
2021/10/23 08:37:54;;;;;;;6.90;3.30;;;;;;;11.35;100.00;97353.53;5027485;28;20434;-55
2021/10/23 08:40:24;;;;;;;6.22;3.13;;;;;;;11.21;100.00;97359.97;5036912;28;20069;-53
2021/10/23 08:42:52;;;;;;;7.10;3.00;;;;;;;11.69;100.00;97353.34;5012712;28;20081;-53
2021/10/23 08:45:21;;;;;;;5.57;3.47;;;;;;;11.32;100.00;97365.22;5021020;28;20499;-53
2021/10/23 08:47:51;;;;;;;5.10;2.75;;;;;;;11.97;100.00;97363.28;5033495;28;20061;-53
2021/10/23 08:50:21;;;;;;;8.57;2.90;;;;;;;11.70;100.00;97366.47;5042452;28;20125;-55
2021/10/23 08:52:58;;;;;;;7.50;2.90;;;;;;;12.01;100.00;97364.72;5048423;28;20065;-54
2021/10/23 08:55:26;;;;;;;5.93;2.78;;;;;;;11.99;100.00;97365.81;5047012;28;20080;-51
2021/10/23 08:57:55;;;;;;;6.63;3.05;;;;;;;11.98;100.00;97364.16;5042834;28;20088;-54
2021/10/23 09:00:23;;;;;;;7.43;3.17;;;;;;;11.56;100.00;97375.53;5029547;28;20049;-54
2021/10/23 09:02:53;;;;;;;5.57;2.72;;;;;;;11.92;100.00;97377.88;5026957;28;20073;-56
2021/10/23 09:05:23;;;;;;;8.88;3.20;;;;;;;11.79;100.00;97384.16;5043612;28;20468;-51
2021/10/23 09:07:52;;;;;;;6.70;3.20;;;;;;;12.24;100.00;97369.81;5043517;28;20553;-55
2021/10/23 09:10:25;;;;;;;6.63;3.45;;;;;;;11.93;100.00;97368.97;5034666;28;20104;-57
2021/10/23 09:13:05;;;;;;;4.70;3.35;;;;;;;12.23;100.00;97370.81;5044140;28;20712;-52
2021/10/23 09:15:36;;;;;;;10.73;4.40;;;;;;;11.62;100.00;97392.66;5026852;28;20073;-52
2021/10/23 09:18:06;;;;;;;9.02;3.92;;;;;;;11.39;100.00;97384.03;5042765;28;20075;-53
2021/10/23 09:20:39;;;;;;;9.98;3.72;;;;;;;12.55;100.00;97379.41;5027449;28;20080;-50
2021/10/23 09:23:14;;;;;;;8.52;4.68;;;;;;;12.58;100.00;97373.84;5027480;28;20068;-57
2021/10/23 09:25:43;;;;;;;6.60;3.90;;;;;;;13.50;100.00;97375.41;5029224;28;20065;-52
2021/10/23 09:28:14;;;;;;;8.60;4.35;;;;;;;13.11;100.00;97379.81;5047790;28;20079;-56
2021/10/23 09:30:44;;;;;;;9.27;4.40;;;;;;;13.35;100.00;97372.34;5044815;28;20080;-53
2021/10/23 09:33:17;;;;;;;9.52;4.10;;;;;;;13.97;96.00;97378.97;5045186;28;20098;-52
2021/10/23 09:35:47;;;;;;;7.57;3.90;;;;;;;13.20;100.00;97385.13;5030582;28;20727;-55
2021/10/23 09:38:19;;;;;;;5.97;3.92;;;;;;;12.98;100.00;97374.78;5040759;28;20065;-53
2021/10/23 09:40:49;;;;;;;6.72;3.63;;;;;;;13.07;100.00;97374.81;5036239;28;20061;-53
2021/10/23 09:43:19;;;;;;;5.00;3.10;;;;;;;13.21;100.00;97383.31;5028056;28;20689;-54
2021/10/23 09:46:06;;;;;;;8.73;3.67;;;;;;;13.86;97.21;97378.28;5021470;28;20080;-52
2021/10/23 09:48:37;;;;;;;6.18;3.47;;;;;;;13.62;98.97;97379.56;5045474;28;20295;-57
2021/10/23 09:51:10;;;;;;;4.82;3.08;;;;;;;13.68;95.54;97376.34;5051422;28;20098;-53
2021/10/23 09:53:39;;;;;;;3.63;3.13;;;;;;;12.87;100.00;97380.19;5026933;28;20073;-52
2021/10/23 09:56:09;;;;;;;6.18;3.13;;;;;;;13.47;97.77;97384.47;5024093;28;20080;-55
2021/10/23 09:58:38;;;;;;;5.78;2.58;;;;;;;12.69;100.00;97374.72;5017207;28;20132;-55
2021/10/23 10:01:07;;;;;;;5.25;3.03;;;;;;;13.80;96.90;97365.59;5021008;28;20089;-56
2021/10/23 10:03:37;;;;;;;4.28;3.40;;;;;;;14.23;87.53;97367.72;5019068;28;20086;-54
2021/10/23 10:06:06;;;;;;;4.07;2.40;;;;;;;14.29;83.79;97372.47;5048534;28;20075;-53
2021/10/23 10:08:35;;;;;;;5.13;2.55;;;;;;;13.89;89.67;97381.50;5042870;28;20072;-56
2021/10/23 10:11:04;;;;;;;2.45;1.90;;;;;;;14.11;77.24;97388.28;5030439;28;20084;-55
2021/10/23 10:13:34;;;;;;;4.95;2.92;;;;;;;14.19;78.51;97383.09;5027817;28;20071;-56
2021/10/23 10:16:03;;;;;;;3.60;2.70;;;;;;;14.38;77.95;97373.38;5044077;28;20519;-51
2021/10/23 10:18:33;;;;;;;5.82;2.72;;;;;;;14.99;70.56;97370.16;5021314;28;20081;-53
2021/10/23 10:21:07;;;;;;;5.05;2.95;;;;;;;14.28;82.70;97370.78;5038331;28;20068;-50
2021/10/23 10:23:39;;;;;;;5.07;2.70;;;;;;;15.53;66.22;97367.53;5046238;28;20069;-53
2021/10/23 10:26:27;;;;;;;4.00;3.10;;;;;;;14.52;73.40;97372.97;5036440;28;20061;-54
2021/10/23 10:29:24;;;;;;;5.10;3.13;;;;;;;15.50;71.15;97370.50;5042443;28;20529;-55
2021/10/23 10:31:56;;;;;;;6.47;3.63;;;;;;;14.91;73.50;97378.06;5030539;28;20117;-58
2021/10/23 10:35:21;;;;;;;4.13;3.03;;;;;;;15.03;78.04;97378.66;5035838;28;20069;-55
2021/10/23 10:38:03;;;;;;;5.50;2.90;;;;;;;14.59;76.74;97374.03;5025585;28;20061;-51
2021/10/23 10:40:56;;;;;;;5.40;3.80;;;;;;;14.24;91.12;97395.91;5032038;28;20076;-52
2021/10/23 10:43:25;;;;;;;6.63;4.15;;;;;;;13.80;100.00;97389.47;5032144;28;20099;-54
2021/10/23 10:45:57;;;;;;;8.20;4.45;;;;;;;13.44;100.00;97389.22;5036558;28;20081;-52
2021/10/23 10:48:40;;;;;;;9.18;4.78;;;;;;;13.25;100.00;97388.25;5017859;28;20478;-56
2021/10/23 10:51:29;;;;;;;6.85;5.22;;;;;;;12.90;100.00;97387.88;5026876;28;20062;-54
2021/10/23 10:54:07;;;;;;;7.53;4.50;;;;;;;12.77;100.00;97383.66;5013840;28;20065;-56
2021/10/23 10:56:47;;;;;;;9.07;4.70;;;;;;;12.81;100.00;97379.78;5016713;28;20462;-53
2021/10/23 10:59:49;;;;;;;8.38;4.93;;;;;;;12.81;100.00;97377.13;5016669;28;20073;-55
2021/10/23 11:02:30;;;;;;;13.70;4.63;;;;;;;13.02;100.00;97379.66;5026139;28;20068;-54
2021/10/23 11:05:18;;;;;;;8.85;5.30;;;;;;;13.24;100.00;97378.59;5046117;28;20079;-48
2021/10/23 11:08:03;;;;;;;11.80;5.70;;;;;;;13.06;100.00;97373.13;5037590;28;20095;-56
2021/10/23 11:11:06;;;;;;;12.52;5.55;;;;;;;13.62;100.00;97365.50;5029776;28;20061;-51
2021/10/23 11:13:43;;;;;;;8.40;4.63;;;;;;;14.03;100.00;97377.56;5028982;28;20494;-57
2021/10/23 11:16:24;;;;;;;7.03;3.97;;;;;;;13.30;100.00;97370.09;5043388;28;20084;-53
2021/10/23 11:18:55;;;;;;;5.35;3.70;;;;;;;13.46;100.00;97358.97;5043512;28;20053;-57
2021/10/23 11:21:25;;;;;;;7.35;4.00;;;;;;;13.59;94.81;97371.06;5049421;28;20072;-53
2021/10/23 11:23:54;;;;;;;7.82;3.72;;;;;;;14.32;90.43;97364.22;5046252;28;20461;-57
2021/10/23 11:26:24;;;;;;;7.68;3.90;;;;;;;13.88;94.34;97363.91;5045010;28;20520;-58
2021/10/23 11:28:53;;;;;;;6.55;4.20;;;;;;;14.19;89.44;97366.34;5032505;28;20069;-56
2021/10/23 11:31:22;;;;;;;7.80;3.63;;;;;;;15.18;75.22;97353.28;5025549;28;20509;-52
2021/10/23 11:33:51;;;;;;;6.97;3.50;;;;;;;14.56;83.26;97358.41;5037965;28;20088;-53
2021/10/23 11:36:20;;;;;;;8.38;4.00;;;;;;;15.30;73.80;97354.69;5024581;28;20092;-53
2021/10/23 11:38:49;;;;;;;6.53;3.38;;;;;;;15.89;69.74;97352.38;5020484;28;20065;-54
2021/10/23 11:41:25;;;;;;;3.85;2.53;;;;;;;15.37;69.12;97354.94;5021837;28;20060;-53
2021/10/23 11:43:54;;;;;;;5.75;2.95;;;;;;;14.83;68.10;97346.94;5027189;28;20068;-52
2021/10/23 11:46:22;;;;;;;2.65;2.08;;;;;;;15.06;64.53;97347.31;5026268;28;20061;-55